Terminal Aerodrome Forecast
Issued by NWS

Home | Current Version | Previous Version | Text Only | Print | Product List | Glossary On
Versions: 1 2 3 4 5 6 7 8 9 10 11 12 13 14 15 16 17 18 19 20
000
FTUS44 KLZK 310500
TAFHOT
TAF
KHOT 310520Z 3106/0106 33005KT P6SM SKC
      TEMPO 3109/3113 5SM BR
     FM311600 35012G20KT P6SM SCT035
     FM010000 01008G15KT P6SM SKC=

USA.gov is the U.S. government's official web portal to all federal, state and local government web resources and services.